Weather at El Paso International Airport

Public forecast

Using degrees Fahrenheit for public forecast. Weather courtesy of forecast.io.

Current aviation weather report (METAR) for El Paso International Airport

Retrieved 2022/01/29 13:51 UTC (12 minutes ago):

KELP 291351Z COR 01008KT 10SM FEW170 FEW220 M01/M11 A3036 RMK AO2 SLP275 T1011

Aviation forecast (TAF) for El Paso International Airport

Retrieved 2022/01/29 12:39 UTC (1 hour ago):

TAF KELP 291137Z 2912/3012 03005KT P6SM SCT250 FM291600 VRB05KT P6SM FEW250